Pagrindinis puslapis
METAR-TAF:

METAR-TAF

Oro uostai :

Podgoricos oro uostas

Podgorica, Juodkalnija

platuma: 42-26N, ilguma: 019-17E, Aukštis: 53 m

Dabartinis oras

Ataskaita buvo paskelbta 31 minutes, ne 23:00 UTC
Vėjas 9 kt iš Šiaurės/Šiaurės Vakarų
Temperatūra 13°C
Drėgmė 19%
Slėgis 1027 hPa
Matomumas 10 km arba daugiau
nėra debesų žemiau 1500 m ir nėra kamuolinių lietaus debesų

METAR: LYPG 072300Z 33009KT CAVOK 13/M10 Q1027 NOSIG

Laikas: 01:31 (23:31 UTC)

Prognozė

Ataskaita buvo paskelbta 6 valandos ir 31 minutes, ne 17:00 UTC
Prognozė galioja nuo 07 metu 18 UTC su 08 metu 18 UTC
Vėjas 9 kt iš Šiaurės/Šiaurės Rytų
Matomumas 10 km arba daugiau
nėra debesų žemiau 1500 m ir nėra kamuolinių lietaus debesų
Laikinai
nuo 07 metu 18 UTC su 08 metu 04 UTC
Vėjas 18 kt iš Šiaurės/Šiaurės Rytų

TAF: LYPG 071700Z 0718/0818 02009KT CAVOK TX23/0813Z TN09/0804Z TEMPO 0718/0804 02018KT

Orai ataskaitas ir orų prognozės (METAR, TAF).

turimą stotys yra geltonos ir raudonos taškus žemėlapyje.

Perkelti pele per norėdami pamatyti stoties vardą.

Tada spustelėkite, norėdami matyti oro stebėjimo ir prognozės.

Norėdami pakeisti žemėlapį: spustelėkite ant žalios mygtukų su juodo kryžiaus žemyn,; žalią mygtuką su brūkšneliu, jei norite nutolinti; arba žalių rodyklių gretimoms žemėlapius.


METAR-TAF: